Terminal Aerodrome Forecast
Issued by NWS

Home | Current Version | Previous Version | Text Only | Print | Product List | Glossary On
Versions: 1 2 3 4 5 6 7 8 9 10 11 12 13 14 15 16 17
272
FTUS41 KGYX 242335
TAFPSM
TAF
KPSM 242335Z 2500/2524 10008KT P6SM SCT120 BKN250
     FM250400 06005KT P6SM SCT120 BKN200
     FM251000 06008KT P6SM BKN015 OVC070
     FM251300 07012KT P6SM -SHRA BKN007 OVC012
     FM251800 08016G26KT 3SM -RA BR OVC004=

USA.gov is the U.S. government's official web portal to all federal, state and local government web resources and services.